sensor_id;sensor_type;location;lat;lon;timestamp;P1;durP1;ratioP1;P2;durP2;ratioP2
946;SDS011;460;48.734;9.152;2023-02-12T00:00:43;11.48;;;6.35;;
946;SDS011;460;48.734;9.152;2023-02-12T00:03:10;12.57;;;5.15;;
946;SDS011;460;48.734;9.152;2023-02-12T00:05:37;10.93;;;6.30;;
946;SDS011;460;48.734;9.152;2023-02-12T00:08:05;8.00;;;5.07;;
946;SDS011;460;48.734;9.152;2023-02-12T00:10:34;9.43;;;6.22;;
946;SDS011;460;48.734;9.152;2023-02-12T00:13:04;6.65;;;5.95;;
946;SDS011;460;48.734;9.152;2023-02-12T00:15:31;8.68;;;5.05;;
946;SDS011;460;48.734;9.152;2023-02-12T00:17:58;8.07;;;6.57;;
946;SDS011;460;48.734;9.152;2023-02-12T00:20:25;9.90;;;5.57;;
946;SDS011;460;48.734;9.152;2023-02-12T00:22:52;5.70;;;5.30;;
946;SDS011;460;48.734;9.152;2023-02-12T00:25:19;11.32;;;6.53;;
946;SDS011;460;48.734;9.152;2023-02-12T00:27:47;10.05;;;8.05;;
946;SDS011;460;48.734;9.152;2023-02-12T00:30:14;5.90;;;5.30;;
946;SDS011;460;48.734;9.152;2023-02-12T00:32:41;4.78;;;4.30;;
946;SDS011;460;48.734;9.152;2023-02-12T00:35:08;4.85;;;4.30;;
946;SDS011;460;48.734;9.152;2023-02-12T00:37:34;13.88;;;6.72;;
946;SDS011;460;48.734;9.152;2023-02-12T00:40:01;10.98;;;7.53;;
946;SDS011;460;48.734;9.152;2023-02-12T00:42:28;13.30;;;7.15;;
946;SDS011;460;48.734;9.152;2023-02-12T00:44:56;6.07;;;4.50;;
946;SDS011;460;48.734;9.152;2023-02-12T00:47:23;7.45;;;4.50;;
946;SDS011;460;48.734;9.152;2023-02-12T00:49:50;10.13;;;4.65;;
946;SDS011;460;48.734;9.152;2023-02-12T00:52:17;13.45;;;8.00;;
946;SDS011;460;48.734;9.152;2023-02-12T00:54:43;10.45;;;7.65;;
946;SDS011;460;48.734;9.152;2023-02-12T00:57:10;7.38;;;6.65;;
946;SDS011;460;48.734;9.152;2023-02-12T00:59:37;6.93;;;4.45;;
946;SDS011;460;48.734;9.152;2023-02-12T01:02:05;7.38;;;4.30;;
946;SDS011;460;48.734;9.152;2023-02-12T01:04:32;6.20;;;5.35;;
946;SDS011;460;48.734;9.152;2023-02-12T01:06:59;8.10;;;6.40;;
946;SDS011;460;48.734;9.152;2023-02-12T01:09:26;7.20;;;6.20;;
946;SDS011;460;48.734;9.152;2023-02-12T01:11:52;8.32;;;7.00;;
946;SDS011;460;48.734;9.152;2023-02-12T01:14:19;8.48;;;7.68;;
946;SDS011;460;48.734;9.152;2023-02-12T01:16:46;5.75;;;4.28;;
946;SDS011;460;48.734;9.152;2023-02-12T01:19:14;5.53;;;4.95;;
946;SDS011;460;48.734;9.152;2023-02-12T01:21:41;7.20;;;6.63;;
946;SDS011;460;48.734;9.152;2023-02-12T01:24:08;15.77;;;10.05;;
946;SDS011;460;48.734;9.152;2023-02-12T01:26:35;11.65;;;7.90;;
946;SDS011;460;48.734;9.152;2023-02-12T01:29:03;9.15;;;7.05;;
946;SDS011;460;48.734;9.152;2023-02-12T01:31:32;7.35;;;5.38;;
946;SDS011;460;48.734;9.152;2023-02-12T01:34:01;6.90;;;6.22;;
946;SDS011;460;48.734;9.152;2023-02-12T01:36:30;13.93;;;6.10;;
946;SDS011;460;48.734;9.152;2023-02-12T01:38:57;9.05;;;5.22;;
946;SDS011;460;48.734;9.152;2023-02-12T01:41:27;11.93;;;9.63;;
946;SDS011;460;48.734;9.152;2023-02-12T01:44:05;9.93;;;6.40;;
946;SDS011;460;48.734;9.152;2023-02-12T01:46:33;7.97;;;6.03;;
946;SDS011;460;48.734;9.152;2023-02-12T01:49:00;8.77;;;4.85;;
946;SDS011;460;48.734;9.152;2023-02-12T01:51:31;9.32;;;5.78;;
946;SDS011;460;48.734;9.152;2023-02-12T01:53:59;12.75;;;6.00;;
946;SDS011;460;48.734;9.152;2023-02-12T01:56:30;11.23;;;4.95;;
946;SDS011;460;48.734;9.152;2023-02-12T01:58:58;6.03;;;5.15;;
946;SDS011;460;48.734;9.152;2023-02-12T02:01:26;5.32;;;3.65;;
946;SDS011;460;48.734;9.152;2023-02-12T02:03:54;13.15;;;7.10;;
946;SDS011;460;48.734;9.152;2023-02-12T02:06:26;6.07;;;4.50;;
946;SDS011;460;48.734;9.152;2023-02-12T02:08:57;9.57;;;5.63;;
946;SDS011;460;48.734;9.152;2023-02-12T02:11:25;11.52;;;6.43;;
946;SDS011;460;48.734;9.152;2023-02-12T02:14:09;11.15;;;7.00;;
946;SDS011;460;48.734;9.152;2023-02-12T02:16:57;6.63;;;4.60;;
946;SDS011;460;48.734;9.152;2023-02-12T02:19:39;8.48;;;5.57;;
946;SDS011;460;48.734;9.152;2023-02-12T02:22:29;5.75;;;3.90;;
946;SDS011;460;48.734;9.152;2023-02-12T02:28:17;6.00;;;5.05;;
946;SDS011;460;48.734;9.152;2023-02-12T02:31:03;8.50;;;5.72;;
946;SDS011;460;48.734;9.152;2023-02-12T02:33:35;6.05;;;4.85;;
946;SDS011;460;48.734;9.152;2023-02-12T02:36:11;6.72;;;5.88;;
946;SDS011;460;48.734;9.152;2023-02-12T02:38:48;5.28;;;4.80;;
946;SDS011;460;48.734;9.152;2023-02-12T02:41:22;6.53;;;5.22;;
946;SDS011;460;48.734;9.152;2023-02-12T02:43:55;8.27;;;4.60;;
946;SDS011;460;48.734;9.152;2023-02-12T02:46:26;10.55;;;6.97;;
946;SDS011;460;48.734;9.152;2023-02-12T02:48:59;5.18;;;4.00;;
946;SDS011;460;48.734;9.152;2023-02-12T02:51:30;9.32;;;4.32;;
946;SDS011;460;48.734;9.152;2023-02-12T02:54:03;11.45;;;7.18;;
946;SDS011;460;48.734;9.152;2023-02-12T02:56:36;14.35;;;6.40;;
946;SDS011;460;48.734;9.152;2023-02-12T02:59:08;5.70;;;4.35;;
946;SDS011;460;48.734;9.152;2023-02-12T03:01:39;7.25;;;5.75;;
946;SDS011;460;48.734;9.152;2023-02-12T03:04:11;11.57;;;5.03;;
946;SDS011;460;48.734;9.152;2023-02-12T03:06:45;7.35;;;6.43;;
946;SDS011;460;48.734;9.152;2023-02-12T03:09:17;7.25;;;6.32;;
946;SDS011;460;48.734;9.152;2023-02-12T03:11:48;4.85;;;3.58;;
946;SDS011;460;48.734;9.152;2023-02-12T03:14:16;8.05;;;6.57;;
946;SDS011;460;48.734;9.152;2023-02-12T03:16:50;9.95;;;7.15;;
946;SDS011;460;48.734;9.152;2023-02-12T03:19:24;4.85;;;4.38;;
946;SDS011;460;48.734;9.152;2023-02-12T03:21:56;7.63;;;6.82;;
946;SDS011;460;48.734;9.152;2023-02-12T03:24:30;7.30;;;4.00;;
946;SDS011;460;48.734;9.152;2023-02-12T03:27:03;6.88;;;5.72;;
946;SDS011;460;48.734;9.152;2023-02-12T03:29:34;11.32;;;5.95;;
946;SDS011;460;48.734;9.152;2023-02-12T03:32:06;8.13;;;4.55;;
946;SDS011;460;48.734;9.152;2023-02-12T03:34:50;7.18;;;4.53;;
946;SDS011;460;48.734;9.152;2023-02-12T03:37:23;10.20;;;5.88;;
946;SDS011;460;48.734;9.152;2023-02-12T03:39:55;13.13;;;5.35;;
946;SDS011;460;48.734;9.152;2023-02-12T03:42:32;11.02;;;6.65;;
946;SDS011;460;48.734;9.152;2023-02-12T03:45:06;7.30;;;4.85;;
946;SDS011;460;48.734;9.152;2023-02-12T03:47:43;10.93;;;6.03;;
946;SDS011;460;48.734;9.152;2023-02-12T03:50:16;8.75;;;6.00;;
946;SDS011;460;48.734;9.152;2023-02-12T03:52:47;13.85;;;6.85;;
946;SDS011;460;48.734;9.152;2023-02-12T03:55:17;16.85;;;6.35;;
946;SDS011;460;48.734;9.152;2023-02-12T03:57:45;8.35;;;5.57;;
946;SDS011;460;48.734;9.152;2023-02-12T04:00:19;5.90;;;4.40;;
946;SDS011;460;48.734;9.152;2023-02-12T04:02:49;13.52;;;4.47;;
946;SDS011;460;48.734;9.152;2023-02-12T04:05:19;8.02;;;6.70;;
946;SDS011;460;48.734;9.152;2023-02-12T04:07:48;6.85;;;6.25;;
946;SDS011;460;48.734;9.152;2023-02-12T04:10:16;7.45;;;5.68;;
946;SDS011;460;48.734;9.152;2023-02-12T04:12:45;13.77;;;7.57;;
946;SDS011;460;48.734;9.152;2023-02-12T04:15:29;5.85;;;4.63;;
946;SDS011;460;48.734;9.152;2023-02-12T04:18:10;9.25;;;4.38;;
946;SDS011;460;48.734;9.152;2023-02-12T04:20:47;9.25;;;3.97;;
946;SDS011;460;48.734;9.152;2023-02-12T04:23:21;6.85;;;6.15;;
946;SDS011;460;48.734;9.152;2023-02-12T04:26:15;5.47;;;4.45;;
946;SDS011;460;48.734;9.152;2023-02-12T04:28:50;6.32;;;5.35;;
946;SDS011;460;48.734;9.152;2023-02-12T04:31:23;5.13;;;4.22;;
946;SDS011;460;48.734;9.152;2023-02-12T04:33:58;9.65;;;6.35;;
946;SDS011;460;48.734;9.152;2023-02-12T04:36:32;11.05;;;6.55;;
946;SDS011;460;48.734;9.152;2023-02-12T04:39:02;5.65;;;5.10;;
946;SDS011;460;48.734;9.152;2023-02-12T04:41:32;6.72;;;6.05;;
946;SDS011;460;48.734;9.152;2023-02-12T04:44:11;5.35;;;4.53;;
946;SDS011;460;48.734;9.152;2023-02-12T04:46:39;7.75;;;5.95;;
946;SDS011;460;48.734;9.152;2023-02-12T04:49:08;8.13;;;5.25;;
946;SDS011;460;48.734;9.152;2023-02-12T04:51:39;6.32;;;3.88;;
946;SDS011;460;48.734;9.152;2023-02-12T04:54:05;4.47;;;4.10;;
946;SDS011;460;48.734;9.152;2023-02-12T04:56:32;8.32;;;4.70;;
946;SDS011;460;48.734;9.152;2023-02-12T04:58:59;6.35;;;5.75;;
946;SDS011;460;48.734;9.152;2023-02-12T05:01:26;5.53;;;4.40;;
946;SDS011;460;48.734;9.152;2023-02-12T05:03:53;9.63;;;5.85;;
946;SDS011;460;48.734;9.152;2023-02-12T05:06:21;5.75;;;5.25;;
946;SDS011;460;48.734;9.152;2023-02-12T05:08:47;11.50;;;6.65;;
946;SDS011;460;48.734;9.152;2023-02-12T05:11:14;7.40;;;4.80;;
946;SDS011;460;48.734;9.152;2023-02-12T05:13:41;5.88;;;3.55;;
946;SDS011;460;48.734;9.152;2023-02-12T05:16:08;9.32;;;4.53;;
946;SDS011;460;48.734;9.152;2023-02-12T05:18:34;6.95;;;4.68;;
946;SDS011;460;48.734;9.152;2023-02-12T05:21:02;14.40;;;6.43;;
946;SDS011;460;48.734;9.152;2023-02-12T05:23:32;12.80;;;6.10;;
946;SDS011;460;48.734;9.152;2023-02-12T05:26:00;9.30;;;5.40;;
946;SDS011;460;48.734;9.152;2023-02-12T05:28:28;8.85;;;5.60;;
946;SDS011;460;48.734;9.152;2023-02-12T05:30:58;9.85;;;5.35;;
946;SDS011;460;48.734;9.152;2023-02-12T05:33:25;6.78;;;4.10;;
946;SDS011;460;48.734;9.152;2023-02-12T05:35:51;5.82;;;4.85;;
946;SDS011;460;48.734;9.152;2023-02-12T05:38:19;7.53;;;5.20;;
946;SDS011;460;48.734;9.152;2023-02-12T05:40:47;7.55;;;5.78;;
946;SDS011;460;48.734;9.152;2023-02-12T05:43:14;5.82;;;5.30;;
946;SDS011;460;48.734;9.152;2023-02-12T05:45:41;13.05;;;5.15;;
946;SDS011;460;48.734;9.152;2023-02-12T05:48:09;6.72;;;6.13;;
946;SDS011;460;48.734;9.152;2023-02-12T05:50:36;5.53;;;5.03;;
946;SDS011;460;48.734;9.152;2023-02-12T05:53:02;5.78;;;4.65;;
946;SDS011;460;48.734;9.152;2023-02-12T05:55:29;11.88;;;5.80;;
946;SDS011;460;48.734;9.152;2023-02-12T05:57:57;8.68;;;5.35;;
946;SDS011;460;48.734;9.152;2023-02-12T06:00:24;10.52;;;7.22;;
946;SDS011;460;48.734;9.152;2023-02-12T06:02:51;6.38;;;4.60;;
946;SDS011;460;48.734;9.152;2023-02-12T06:05:18;7.93;;;5.38;;
946;SDS011;460;48.734;9.152;2023-02-12T06:07:45;12.27;;;4.38;;
946;SDS011;460;48.734;9.152;2023-02-12T06:10:11;8.48;;;5.22;;
946;SDS011;460;48.734;9.152;2023-02-12T06:12:38;9.65;;;6.03;;
946;SDS011;460;48.734;9.152;2023-02-12T06:15:07;16.25;;;9.23;;
946;SDS011;460;48.734;9.152;2023-02-12T06:17:34;6.82;;;4.88;;
946;SDS011;460;48.734;9.152;2023-02-12T06:20:01;5.90;;;3.90;;
946;SDS011;460;48.734;9.152;2023-02-12T06:22:29;5.30;;;4.85;;
946;SDS011;460;48.734;9.152;2023-02-12T06:24:55;9.07;;;5.35;;
946;SDS011;460;48.734;9.152;2023-02-12T06:27:22;7.97;;;3.83;;
946;SDS011;460;48.734;9.152;2023-02-12T06:29:49;6.15;;;4.80;;
946;SDS011;460;48.734;9.152;2023-02-12T06:32:17;11.50;;;6.53;;
946;SDS011;460;48.734;9.152;2023-02-12T06:34:44;5.13;;;4.60;;
946;SDS011;460;48.734;9.152;2023-02-12T06:37:11;10.20;;;5.55;;
946;SDS011;460;48.734;9.152;2023-02-12T06:39:37;7.10;;;5.50;;
946;SDS011;460;48.734;9.152;2023-02-12T06:42:04;7.75;;;6.40;;
946;SDS011;460;48.734;9.152;2023-02-12T06:44:31;14.27;;;6.10;;
946;SDS011;460;48.734;9.152;2023-02-12T06:46:58;5.68;;;4.53;;
946;SDS011;460;48.734;9.152;2023-02-12T06:49:26;7.78;;;6.43;;
946;SDS011;460;48.734;9.152;2023-02-12T06:51:53;10.05;;;5.55;;
946;SDS011;460;48.734;9.152;2023-02-12T06:54:19;6.80;;;3.63;;
946;SDS011;460;48.734;9.152;2023-02-12T06:56:46;10.18;;;6.18;;
946;SDS011;460;48.734;9.152;2023-02-12T06:59:14;6.25;;;5.50;;
946;SDS011;460;48.734;9.152;2023-02-12T07:01:41;5.60;;;3.63;;
946;SDS011;460;48.734;9.152;2023-02-12T07:04:08;5.45;;;4.97;;
946;SDS011;460;48.734;9.152;2023-02-12T07:06:38;13.35;;;5.72;;
946;SDS011;460;48.734;9.152;2023-02-12T07:09:05;9.43;;;4.75;;
946;SDS011;460;48.734;9.152;2023-02-12T07:11:32;5.60;;;4.90;;
946;SDS011;460;48.734;9.152;2023-02-12T07:14:01;5.78;;;5.10;;
946;SDS011;460;48.734;9.152;2023-02-12T07:16:28;11.25;;;7.60;;
946;SDS011;460;48.734;9.152;2023-02-12T07:18:55;7.32;;;4.75;;
946;SDS011;460;48.734;9.152;2023-02-12T07:21:22;6.57;;;5.93;;
946;SDS011;460;48.734;9.152;2023-02-12T07:23:51;10.18;;;3.28;;
946;SDS011;460;48.734;9.152;2023-02-12T07:26:19;6.32;;;5.75;;
946;SDS011;460;48.734;9.152;2023-02-12T07:28:47;6.53;;;5.72;;
946;SDS011;460;48.734;9.152;2023-02-12T07:31:15;5.85;;;4.43;;
946;SDS011;460;48.734;9.152;2023-02-12T07:33:43;8.45;;;7.75;;
946;SDS011;460;48.734;9.152;2023-02-12T07:36:11;6.50;;;5.90;;
946;SDS011;460;48.734;9.152;2023-02-12T07:38:38;6.95;;;5.40;;
946;SDS011;460;48.734;9.152;2023-02-12T07:41:07;6.03;;;5.40;;
946;SDS011;460;48.734;9.152;2023-02-12T07:43:36;7.05;;;5.32;;
946;SDS011;460;48.734;9.152;2023-02-12T07:46:09;17.73;;;6.72;;
946;SDS011;460;48.734;9.152;2023-02-12T07:48:37;11.02;;;8.50;;
946;SDS011;460;48.734;9.152;2023-02-12T07:51:05;10.88;;;5.45;;
946;SDS011;460;48.734;9.152;2023-02-12T07:53:33;9.90;;;6.95;;
946;SDS011;460;48.734;9.152;2023-02-12T07:56:03;6.45;;;4.80;;
946;SDS011;460;48.734;9.152;2023-02-12T07:58:32;7.13;;;6.63;;
946;SDS011;460;48.734;9.152;2023-02-12T08:01:00;6.38;;;4.93;;
946;SDS011;460;48.734;9.152;2023-02-12T08:03:36;7.60;;;6.85;;
946;SDS011;460;48.734;9.152;2023-02-12T08:06:05;10.27;;;8.45;;
946;SDS011;460;48.734;9.152;2023-02-12T08:08:33;11.10;;;6.00;;
946;SDS011;460;48.734;9.152;2023-02-12T08:11:02;12.27;;;6.30;;
946;SDS011;460;48.734;9.152;2023-02-12T08:13:30;7.78;;;6.05;;
946;SDS011;460;48.734;9.152;2023-02-12T08:16:00;7.80;;;7.07;;
946;SDS011;460;48.734;9.152;2023-02-12T08:18:27;7.90;;;6.57;;
946;SDS011;460;48.734;9.152;2023-02-12T08:20:59;10.90;;;5.90;;
946;SDS011;460;48.734;9.152;2023-02-12T08:23:28;12.18;;;6.28;;
946;SDS011;460;48.734;9.152;2023-02-12T08:25:55;13.68;;;7.13;;
946;SDS011;460;48.734;9.152;2023-02-12T08:28:30;8.93;;;7.53;;
946;SDS011;460;48.734;9.152;2023-02-12T08:31:00;8.65;;;7.20;;
946;SDS011;460;48.734;9.152;2023-02-12T08:33:27;14.88;;;7.97;;
946;SDS011;460;48.734;9.152;2023-02-12T08:35:59;6.88;;;6.10;;
946;SDS011;460;48.734;9.152;2023-02-12T08:38:26;11.85;;;7.78;;
946;SDS011;460;48.734;9.152;2023-02-12T08:40:53;8.52;;;6.32;;
946;SDS011;460;48.734;9.152;2023-02-12T08:43:20;7.55;;;5.78;;
946;SDS011;460;48.734;9.152;2023-02-12T08:45:47;7.97;;;6.00;;
946;SDS011;460;48.734;9.152;2023-02-12T08:48:15;8.40;;;6.05;;
946;SDS011;460;48.734;9.152;2023-02-12T08:50:44;9.02;;;7.78;;
946;SDS011;460;48.734;9.152;2023-02-12T08:53:11;27.90;;;9.77;;
946;SDS011;460;48.734;9.152;2023-02-12T08:55:38;14.73;;;10.90;;
946;SDS011;460;48.734;9.152;2023-02-12T08:58:05;12.63;;;6.50;;
946;SDS011;460;48.734;9.152;2023-02-12T09:00:31;8.15;;;5.80;;
946;SDS011;460;48.734;9.152;2023-02-12T09:02:58;9.63;;;6.60;;
946;SDS011;460;48.734;9.152;2023-02-12T09:05:26;9.70;;;7.47;;
946;SDS011;460;48.734;9.152;2023-02-12T09:07:53;15.15;;;7.90;;
946;SDS011;460;48.734;9.152;2023-02-12T09:10:20;7.70;;;6.32;;
946;SDS011;460;48.734;9.152;2023-02-12T09:12:47;43.83;;;8.90;;
946;SDS011;460;48.734;9.152;2023-02-12T09:15:13;14.30;;;8.45;;
946;SDS011;460;48.734;9.152;2023-02-12T09:17:40;12.80;;;8.38;;
946;SDS011;460;48.734;9.152;2023-02-12T09:20:08;10.60;;;6.82;;
946;SDS011;460;48.734;9.152;2023-02-12T09:22:36;6.97;;;5.72;;
946;SDS011;460;48.734;9.152;2023-02-12T09:25:03;15.20;;;7.78;;
946;SDS011;460;48.734;9.152;2023-02-12T09:27:31;15.65;;;8.50;;
946;SDS011;460;48.734;9.152;2023-02-12T09:29:58;11.50;;;7.45;;
946;SDS011;460;48.734;9.152;2023-02-12T09:32:24;6.07;;;4.85;;
946;SDS011;460;48.734;9.152;2023-02-12T09:34:51;12.52;;;8.30;;
946;SDS011;460;48.734;9.152;2023-02-12T09:37:18;7.90;;;4.30;;
946;SDS011;460;48.734;9.152;2023-02-12T09:39:46;8.35;;;4.40;;
946;SDS011;460;48.734;9.152;2023-02-12T09:42:19;5.70;;;4.07;;
946;SDS011;460;48.734;9.152;2023-02-12T09:44:57;4.38;;;2.78;;
946;SDS011;460;48.734;9.152;2023-02-12T09:47:32;3.10;;;2.58;;
946;SDS011;460;48.734;9.152;2023-02-12T09:50:10;2.50;;;2.30;;
946;SDS011;460;48.734;9.152;2023-02-12T09:52:47;3.08;;;2.78;;
946;SDS011;460;48.734;9.152;2023-02-12T09:55:16;5.50;;;3.28;;
946;SDS011;460;48.734;9.152;2023-02-12T09:57:44;2.83;;;2.63;;
946;SDS011;460;48.734;9.152;2023-02-12T10:00:14;7.20;;;3.47;;
946;SDS011;460;48.734;9.152;2023-02-12T10:02:43;1.70;;;1.45;;
946;SDS011;460;48.734;9.152;2023-02-12T10:05:13;2.72;;;2.50;;
946;SDS011;460;48.734;9.152;2023-02-12T10:10:38;6.82;;;1.92;;
946;SDS011;460;48.734;9.152;2023-02-12T10:13:15;5.78;;;3.90;;
946;SDS011;460;48.734;9.152;2023-02-12T10:15:53;6.28;;;3.55;;
946;SDS011;460;48.734;9.152;2023-02-12T10:18:34;4.40;;;2.35;;
946;SDS011;460;48.734;9.152;2023-02-12T10:21:16;1.15;;;0.88;;
946;SDS011;460;48.734;9.152;2023-02-12T10:24:03;1.55;;;1.40;;
946;SDS011;460;48.734;9.152;2023-02-12T10:26:47;2.17;;;1.73;;
946;SDS011;460;48.734;9.152;2023-02-12T10:29:16;3.92;;;3.00;;
946;SDS011;460;48.734;9.152;2023-02-12T10:31:46;8.75;;;3.75;;
946;SDS011;460;48.734;9.152;2023-02-12T10:34:18;2.57;;;2.37;;
946;SDS011;460;48.734;9.152;2023-02-12T10:36:48;2.80;;;2.60;;
946;SDS011;460;48.734;9.152;2023-02-12T10:39:18;7.77;;;3.50;;
946;SDS011;460;48.734;9.152;2023-02-12T10:41:53;3.23;;;2.77;;
946;SDS011;460;48.734;9.152;2023-02-12T10:44:23;3.58;;;2.28;;
946;SDS011;460;48.734;9.152;2023-02-12T10:46:50;7.20;;;3.43;;
946;SDS011;460;48.734;9.152;2023-02-12T10:49:17;6.10;;;4.47;;
946;SDS011;460;48.734;9.152;2023-02-12T10:52:07;5.07;;;3.40;;
946;SDS011;460;48.734;9.152;2023-02-12T10:54:38;3.37;;;3.07;;
946;SDS011;460;48.734;9.152;2023-02-12T10:57:10;4.47;;;2.50;;
946;SDS011;460;48.734;9.152;2023-02-12T10:59:43;2.00;;;1.90;;
946;SDS011;460;48.734;9.152;2023-02-12T11:02:18;4.27;;;3.10;;
946;SDS011;460;48.734;9.152;2023-02-12T11:04:50;3.23;;;2.87;;
946;SDS011;460;48.734;9.152;2023-02-12T11:07:18;2.03;;;1.90;;
946;SDS011;460;48.734;9.152;2023-02-12T11:09:46;2.20;;;1.47;;
946;SDS011;460;48.734;9.152;2023-02-12T11:12:31;1.30;;;1.20;;
946;SDS011;460;48.734;9.152;2023-02-12T11:15:01;2.00;;;1.33;;
946;SDS011;460;48.734;9.152;2023-02-12T11:17:34;3.90;;;2.43;;
946;SDS011;460;48.734;9.152;2023-02-12T11:20:04;1.90;;;1.63;;
946;SDS011;460;48.734;9.152;2023-02-12T11:22:49;1.60;;;1.47;;
946;SDS011;460;48.734;9.152;2023-02-12T11:25:17;3.70;;;2.50;;
946;SDS011;460;48.734;9.152;2023-02-12T11:27:46;1.63;;;1.53;;
946;SDS011;460;48.734;9.152;2023-02-12T11:30:29;2.40;;;2.20;;
946;SDS011;460;48.734;9.152;2023-02-12T11:35:50;2.53;;;2.10;;
946;SDS011;460;48.734;9.152;2023-02-12T11:38:20;1.90;;;1.80;;
946;SDS011;460;48.734;9.152;2023-02-12T11:40:55;2.47;;;1.37;;
946;SDS011;460;48.734;9.152;2023-02-12T11:43:25;2.10;;;1.87;;
946;SDS011;460;48.734;9.152;2023-02-12T11:45:55;7.03;;;2.93;;
946;SDS011;460;48.734;9.152;2023-02-12T11:48:23;2.50;;;2.30;;
946;SDS011;460;48.734;9.152;2023-02-12T11:50:53;2.40;;;1.93;;
946;SDS011;460;48.734;9.152;2023-02-12T11:53:23;3.10;;;2.90;;
946;SDS011;460;48.734;9.152;2023-02-12T11:55:55;5.80;;;3.37;;
946;SDS011;460;48.734;9.152;2023-02-12T11:58:25;4.10;;;1.90;;
946;SDS011;460;48.734;9.152;2023-02-12T12:00:55;2.70;;;2.37;;
946;SDS011;460;48.734;9.152;2023-02-12T12:03:28;5.97;;;3.00;;
946;SDS011;460;48.734;9.152;2023-02-12T12:06:09;2.43;;;2.23;;
946;SDS011;460;48.734;9.152;2023-02-12T12:08:45;2.27;;;2.00;;
946;SDS011;460;48.734;9.152;2023-02-12T12:11:17;2.13;;;1.90;;
946;SDS011;460;48.734;9.152;2023-02-12T12:13:49;3.63;;;3.33;;
946;SDS011;460;48.734;9.152;2023-02-12T12:16:20;2.13;;;1.73;;
946;SDS011;460;48.734;9.152;2023-02-12T12:19:11;2.30;;;1.80;;
946;SDS011;460;48.734;9.152;2023-02-12T12:22:02;4.90;;;2.60;;
946;SDS011;460;48.734;9.152;2023-02-12T12:24:34;2.93;;;2.07;;
946;SDS011;460;48.734;9.152;2023-02-12T12:27:09;3.97;;;2.77;;
946;SDS011;460;48.734;9.152;2023-02-12T12:30:13;1.77;;;1.67;;
946;SDS011;460;48.734;9.152;2023-02-12T12:32:45;3.73;;;3.37;;
946;SDS011;460;48.734;9.152;2023-02-12T12:35:15;4.63;;;3.07;;
946;SDS011;460;48.734;9.152;2023-02-12T12:37:46;2.90;;;2.10;;
946;SDS011;460;48.734;9.152;2023-02-12T12:40:25;1.93;;;1.20;;
946;SDS011;460;48.734;9.152;2023-02-12T12:43:13;2.37;;;1.80;;
946;SDS011;460;48.734;9.152;2023-02-12T12:51:50;5.07;;;1.70;;
946;SDS011;460;48.734;9.152;2023-02-12T12:57:35;2.40;;;2.00;;
946;SDS011;460;48.734;9.152;2023-02-12T13:00:14;2.73;;;2.43;;
946;SDS011;460;48.734;9.152;2023-02-12T13:03:02;2.53;;;1.80;;
946;SDS011;460;48.734;9.152;2023-02-12T13:08:59;1.53;;;1.30;;
946;SDS011;460;48.734;9.152;2023-02-12T13:11:40;5.10;;;2.37;;
946;SDS011;460;48.734;9.152;2023-02-12T13:14:21;2.70;;;1.63;;
946;SDS011;460;48.734;9.152;2023-02-12T13:16:57;2.37;;;2.07;;
946;SDS011;460;48.734;9.152;2023-02-12T13:19:34;1.50;;;1.40;;
946;SDS011;460;48.734;9.152;2023-02-12T13:22:09;4.07;;;2.10;;
946;SDS011;460;48.734;9.152;2023-02-12T13:24:44;8.77;;;2.93;;
946;SDS011;460;48.734;9.152;2023-02-12T13:27:17;3.30;;;2.87;;
946;SDS011;460;48.734;9.152;2023-02-12T13:29:47;3.40;;;3.10;;
946;SDS011;460;48.734;9.152;2023-02-12T13:32:18;3.43;;;2.93;;
946;SDS011;460;48.734;9.152;2023-02-12T13:34:50;2.83;;;2.03;;
946;SDS011;460;48.734;9.152;2023-02-12T13:37:20;3.97;;;2.30;;
946;SDS011;460;48.734;9.152;2023-02-12T13:39:57;2.30;;;1.77;;
946;SDS011;460;48.734;9.152;2023-02-12T13:42:29;1.70;;;1.57;;
946;SDS011;460;48.734;9.152;2023-02-12T13:45:11;2.77;;;2.27;;
946;SDS011;460;48.734;9.152;2023-02-12T13:47:49;2.50;;;2.00;;
946;SDS011;460;48.734;9.152;2023-02-12T13:50:30;2.10;;;1.90;;
946;SDS011;460;48.734;9.152;2023-02-12T13:53:06;2.50;;;1.60;;
946;SDS011;460;48.734;9.152;2023-02-12T13:55:47;2.60;;;2.07;;
946;SDS011;460;48.734;9.152;2023-02-12T13:58:38;2.60;;;2.00;;
946;SDS011;460;48.734;9.152;2023-02-12T14:01:12;1.77;;;1.67;;
946;SDS011;460;48.734;9.152;2023-02-12T14:04:12;2.57;;;2.33;;
946;SDS011;460;48.734;9.152;2023-02-12T14:06:54;6.03;;;1.10;;
946;SDS011;460;48.734;9.152;2023-02-12T14:09:26;1.87;;;1.50;;
946;SDS011;460;48.734;9.152;2023-02-12T14:11:56;3.83;;;3.50;;
946;SDS011;460;48.734;9.152;2023-02-12T14:14:25;2.20;;;1.90;;
946;SDS011;460;48.734;9.152;2023-02-12T14:16:55;1.23;;;1.13;;
946;SDS011;460;48.734;9.152;2023-02-12T14:19:38;1.40;;;1.30;;
946;SDS011;460;48.734;9.152;2023-02-12T14:25:28;1.50;;;1.37;;
946;SDS011;460;48.734;9.152;2023-02-12T14:28:15;1.40;;;1.30;;
946;SDS011;460;48.734;9.152;2023-02-12T14:31:18;1.47;;;1.33;;
946;SDS011;460;48.734;9.152;2023-02-12T14:33:47;1.87;;;1.43;;
946;SDS011;460;48.734;9.152;2023-02-12T14:36:17;2.80;;;1.97;;
946;SDS011;460;48.734;9.152;2023-02-12T14:41:31;1.43;;;1.10;;
946;SDS011;460;48.734;9.152;2023-02-12T14:50:13;1.50;;;1.40;;
946;SDS011;460;48.734;9.152;2023-02-12T14:52:48;1.30;;;1.00;;
946;SDS011;460;48.734;9.152;2023-02-12T14:55:19;1.97;;;1.23;;
946;SDS011;460;48.734;9.152;2023-02-12T14:57:51;1.63;;;1.53;;
946;SDS011;460;48.734;9.152;2023-02-12T15:00:25;2.30;;;1.90;;
946;SDS011;460;48.734;9.152;2023-02-12T15:02:56;1.13;;;0.93;;
946;SDS011;460;48.734;9.152;2023-02-12T15:05:28;2.20;;;1.70;;
946;SDS011;460;48.734;9.152;2023-02-12T15:07:58;1.33;;;1.23;;
946;SDS011;460;48.734;9.152;2023-02-12T15:10:29;5.20;;;1.30;;
946;SDS011;460;48.734;9.152;2023-02-12T15:13:04;4.47;;;1.90;;
946;SDS011;460;48.734;9.152;2023-02-12T15:15:42;6.37;;;2.63;;
946;SDS011;460;48.734;9.152;2023-02-12T15:18:15;1.67;;;1.57;;
946;SDS011;460;48.734;9.152;2023-02-12T15:20:49;1.43;;;0.97;;
946;SDS011;460;48.734;9.152;2023-02-12T15:23:33;1.60;;;1.50;;
946;SDS011;460;48.734;9.152;2023-02-12T15:26:04;2.70;;;1.03;;
946;SDS011;460;48.734;9.152;2023-02-12T15:28:37;1.10;;;0.93;;
946;SDS011;460;48.734;9.152;2023-02-12T15:31:05;1.57;;;1.10;;
946;SDS011;460;48.734;9.152;2023-02-12T15:33:35;0.53;;;0.53;;
946;SDS011;460;48.734;9.152;2023-02-12T15:36:07;2.20;;;2.00;;
946;SDS011;460;48.734;9.152;2023-02-12T15:38:36;0.87;;;0.87;;
946;SDS011;460;48.734;9.152;2023-02-12T15:41:07;1.00;;;0.90;;
946;SDS011;460;48.734;9.152;2023-02-12T15:43:38;1.93;;;0.87;;
946;SDS011;460;48.734;9.152;2023-02-12T15:46:12;1.07;;;0.93;;
946;SDS011;460;48.734;9.152;2023-02-12T15:48:42;0.70;;;0.70;;
946;SDS011;460;48.734;9.152;2023-02-12T15:51:09;1.37;;;1.10;;
946;SDS011;460;48.734;9.152;2023-02-12T15:53:43;3.50;;;1.60;;
946;SDS011;460;48.734;9.152;2023-02-12T15:56:11;1.90;;;1.33;;
946;SDS011;460;48.734;9.152;2023-02-12T15:58:45;0.53;;;0.53;;
946;SDS011;460;48.734;9.152;2023-02-12T16:01:14;2.87;;;1.50;;
946;SDS011;460;48.734;9.152;2023-02-12T16:03:46;1.33;;;1.07;;
946;SDS011;460;48.734;9.152;2023-02-12T16:06:15;1.10;;;1.00;;
946;SDS011;460;48.734;9.152;2023-02-12T16:08:44;1.97;;;1.87;;
946;SDS011;460;48.734;9.152;2023-02-12T16:11:15;3.33;;;1.53;;
946;SDS011;460;48.734;9.152;2023-02-12T16:13:47;3.20;;;2.00;;
946;SDS011;460;48.734;9.152;2023-02-12T16:16:18;1.33;;;1.23;;
946;SDS011;460;48.734;9.152;2023-02-12T16:19:02;4.00;;;1.30;;
946;SDS011;460;48.734;9.152;2023-02-12T16:21:39;0.93;;;0.93;;
946;SDS011;460;48.734;9.152;2023-02-12T16:24:11;1.45;;;1.33;;
946;SDS011;460;48.734;9.152;2023-02-12T16:26:46;0.67;;;0.67;;
946;SDS011;460;48.734;9.152;2023-02-12T16:29:15;3.10;;;1.73;;
946;SDS011;460;48.734;9.152;2023-02-12T16:31:51;2.17;;;1.40;;
946;SDS011;460;48.734;9.152;2023-02-12T16:34:26;1.25;;;1.15;;
946;SDS011;460;48.734;9.152;2023-02-12T16:36:54;1.65;;;1.40;;
946;SDS011;460;48.734;9.152;2023-02-12T16:42:33;1.58;;;1.48;;
946;SDS011;460;48.734;9.152;2023-02-12T16:45:02;1.77;;;1.67;;